createdAt,value
2022-10-30T00:01:18.356Z,1.67
2022-10-30T00:03:45.040Z,1.88
2022-10-30T00:08:37.250Z,1.70
2022-10-30T00:11:08.397Z,2.35
2022-10-30T00:13:35.090Z,2.10
2022-10-30T00:16:03.186Z,1.80
2022-10-30T00:18:29.790Z,2.30
2022-10-30T00:20:56.473Z,1.80
2022-10-30T00:23:23.262Z,1.60
2022-10-30T00:25:49.854Z,1.83
2022-10-30T00:36:11.709Z,1.83
2022-10-30T00:38:38.378Z,1.70
2022-10-30T00:41:05.119Z,1.65
2022-10-30T00:43:39.080Z,1.70
2022-10-30T00:46:15.314Z,2.17
2022-10-30T00:48:44.287Z,1.92
2022-10-30T00:51:11.869Z,2.03
2022-10-30T00:53:38.972Z,1.90
2022-10-30T00:58:34.512Z,1.77
2022-10-30T01:01:02.527Z,1.77
2022-10-30T01:03:29.584Z,2.30
2022-10-30T01:05:58.633Z,2.35
2022-10-30T01:08:25.486Z,2.22
2022-10-30T01:10:52.661Z,2.30
2022-10-30T01:13:20.893Z,2.35
2022-10-30T01:16:00.701Z,2.17
2022-10-30T01:18:52.906Z,2.13
2022-10-30T01:21:25.369Z,2.10
2022-10-30T01:24:02.422Z,1.95
2022-10-30T01:26:41.336Z,2.20
2022-10-30T01:29:13.834Z,2.20
2022-10-30T01:31:46.674Z,2.30
2022-10-30T01:34:21.448Z,2.45
2022-10-30T01:39:24.425Z,1.90
2022-10-30T01:41:51.271Z,2.22
2022-10-30T01:46:58.815Z,2.03
2022-10-30T01:49:33.316Z,1.85
2022-10-30T01:52:09.205Z,2.25
2022-10-30T01:57:21.805Z,2.35
2022-10-30T02:02:24.669Z,2.90
2022-10-30T02:04:53.628Z,2.10
2022-10-30T02:09:45.997Z,2.47
2022-10-30T02:12:14.164Z,2.20
2022-10-30T02:14:43.011Z,2.13
2022-10-30T02:17:11.652Z,1.92
2022-10-30T02:19:38.309Z,2.33
2022-10-30T02:24:31.524Z,2.60
2022-10-30T02:26:59.696Z,2.50
2022-10-30T02:29:26.409Z,2.30
2022-10-30T02:31:53.107Z,1.63
2022-10-30T02:34:19.778Z,1.80
2022-10-30T02:36:46.440Z,1.60
2022-10-30T02:39:13.073Z,2.00
2022-10-30T02:41:39.641Z,1.70
2022-10-30T02:56:17.166Z,1.77
2022-10-30T02:58:44.079Z,1.75
2022-10-30T03:01:13.203Z,1.88
2022-10-30T03:03:40.841Z,1.73
2022-10-30T03:06:08.749Z,2.25
2022-10-30T03:08:35.889Z,2.20
2022-10-30T03:11:06.675Z,1.83
2022-10-30T03:13:34.497Z,2.05
2022-10-30T03:18:27.795Z,1.63
2022-10-30T03:21:01.667Z,1.88
2022-10-30T03:23:28.972Z,1.75
2022-10-30T03:25:56.872Z,1.58
2022-10-30T03:28:25.340Z,2.08
2022-10-30T03:30:52.496Z,2.03
2022-10-30T03:33:19.096Z,1.67
2022-10-30T03:35:45.731Z,2.35
2022-10-30T03:38:12.792Z,2.53
2022-10-30T03:40:39.642Z,1.88
2022-10-30T03:47:58.269Z,2.10
2022-10-30T03:50:25.443Z,1.90
2022-10-30T03:52:53.751Z,2.08
2022-10-30T03:55:20.334Z,1.80
2022-10-30T04:00:12.928Z,1.52
2022-10-30T04:02:52.717Z,1.60
2022-10-30T04:05:20.324Z,2.00
2022-10-30T04:07:48.665Z,1.70
2022-10-30T04:17:32.997Z,1.80
2022-10-30T04:20:03.879Z,1.67
2022-10-30T04:22:30.465Z,1.63
2022-10-30T04:24:57.220Z,1.70
2022-10-30T04:27:24.367Z,1.67
2022-10-30T04:29:50.997Z,1.70
2022-10-30T04:32:17.675Z,1.80
2022-10-30T04:34:44.456Z,1.30
2022-10-30T04:37:11.045Z,1.55
2022-10-30T04:39:41.027Z,1.38
2022-10-30T04:42:16.352Z,1.70
2022-10-30T04:44:42.959Z,1.70
2022-10-30T04:47:09.873Z,1.67
2022-10-30T04:49:36.478Z,1.63
2022-10-30T04:52:03.102Z,2.03
2022-10-30T04:54:29.894Z,1.40
2022-10-30T04:56:56.714Z,1.60
2022-10-30T04:59:23.426Z,1.60
2022-10-30T05:01:52.611Z,2.00
2022-10-30T05:04:19.267Z,1.83
2022-10-30T05:16:28.408Z,1.85
2022-10-30T05:18:57.291Z,1.85
2022-10-30T05:21:23.883Z,1.70
2022-10-30T05:23:50.510Z,1.70
2022-10-30T05:26:17.058Z,1.58
2022-10-30T05:28:43.641Z,1.45
2022-10-30T05:31:10.340Z,1.30
2022-10-30T05:38:54.198Z,1.50
2022-10-30T05:41:43.175Z,1.40
2022-10-30T05:44:09.913Z,1.45
2022-10-30T05:46:39.820Z,1.15
2022-10-30T05:51:34.101Z,1.65
2022-10-30T05:54:05.320Z,1.80
2022-10-30T06:01:24.872Z,1.27
2022-10-30T06:03:55.445Z,1.58
2022-10-30T06:06:22.119Z,1.33
2022-10-30T06:11:14.159Z,1.83
2022-10-30T06:13:43.957Z,1.20
2022-10-30T06:16:12.120Z,1.13
2022-10-30T06:19:07.486Z,1.30
2022-10-30T06:21:34.146Z,1.30
2022-10-30T06:24:49.544Z,1.10
2022-10-30T06:27:16.138Z,1.23
2022-10-30T06:29:42.943Z,1.25
2022-10-30T06:32:09.588Z,1.30
2022-10-30T06:34:37.676Z,1.40
2022-10-30T06:37:05.524Z,1.92
2022-10-30T06:39:32.270Z,1.20
2022-10-30T06:46:52.532Z,1.50
2022-10-30T06:51:44.854Z,1.38
2022-10-30T06:54:12.133Z,1.00
2022-10-30T07:03:56.135Z,0.75
2022-10-30T07:11:15.158Z,1.30
2022-10-30T07:14:02.016Z,1.10
2022-10-30T07:16:35.269Z,0.88
2022-10-30T07:21:27.978Z,1.15
2022-10-30T07:23:55.579Z,0.90
2022-10-30T07:28:59.207Z,1.15
2022-10-30T07:31:42.313Z,1.30
2022-10-30T07:34:48.544Z,1.15
2022-10-30T07:37:15.203Z,0.80
2022-10-30T07:40:02.365Z,1.00
2022-10-30T07:44:54.712Z,1.10
2022-10-30T07:47:45.900Z,1.00
2022-10-30T07:50:15.314Z,0.95
2022-10-30T07:52:43.626Z,1.00
2022-10-30T07:55:10.384Z,0.80
2022-10-30T07:57:57.916Z,0.80
2022-10-30T08:01:00.972Z,0.80
2022-10-30T08:03:28.346Z,0.85
2022-10-30T08:06:02.881Z,0.68
2022-10-30T08:10:55.673Z,0.80
2022-10-30T08:13:24.901Z,0.95
2022-10-30T08:20:50.766Z,1.17
2022-10-30T08:28:18.913Z,0.82
2022-10-30T08:30:46.845Z,0.90
2022-10-30T08:33:17.714Z,0.80
2022-10-30T08:35:57.798Z,0.85
2022-10-30T08:38:26.009Z,1.45
2022-10-30T08:41:12.891Z,2.35
2022-10-30T08:43:48.705Z,3.00
2022-10-30T08:46:15.385Z,1.10
2022-10-30T08:48:42.069Z,0.98
2022-10-30T08:51:08.762Z,1.42
2022-10-30T08:56:06.820Z,1.15
2022-10-30T08:58:33.390Z,1.42
2022-10-30T09:05:51.133Z,1.08
2022-10-30T09:15:53.284Z,1.25
2022-10-30T09:18:20.272Z,1.13
2022-10-30T09:20:50.260Z,1.10
2022-10-30T09:23:16.887Z,0.73
2022-10-30T09:30:36.886Z,1.13
2022-10-30T09:33:05.669Z,0.70
2022-10-30T09:35:52.412Z,0.75
2022-10-30T09:40:53.800Z,1.13
2022-10-30T09:43:50.726Z,1.50
2022-10-30T09:46:25.081Z,1.73
2022-10-30T09:48:52.620Z,1.50
2022-10-30T09:51:30.785Z,1.42
2022-10-30T09:53:57.464Z,1.40
2022-10-30T09:56:33.841Z,1.02
2022-10-30T09:59:20.664Z,1.35
2022-10-30T10:04:19.803Z,0.90
2022-10-30T10:06:50.965Z,1.13
2022-10-30T10:09:43.924Z,1.02
2022-10-30T10:14:48.521Z,0.90
2022-10-30T10:17:19.031Z,0.98
2022-10-30T10:22:18.342Z,1.23
2022-10-30T10:24:47.633Z,0.90
2022-10-30T10:29:48.095Z,0.73
2022-10-30T10:32:27.589Z,0.88
2022-10-30T10:35:00.355Z,0.88
2022-10-30T10:48:01.216Z,1.20
2022-10-30T10:50:31.438Z,1.90
2022-10-30T10:55:32.842Z,1.85
2022-10-30T11:00:29.475Z,1.00
2022-10-30T11:02:56.372Z,0.93
2022-10-30T11:05:25.998Z,0.90
2022-10-30T11:07:54.146Z,0.75
2022-10-30T11:10:21.036Z,0.82
2022-10-30T11:12:47.610Z,0.90
2022-10-30T11:15:29.033Z,0.90
2022-10-30T11:18:03.669Z,0.88
2022-10-30T11:23:01.737Z,1.10
2022-10-30T11:25:34.170Z,0.90
2022-10-30T11:28:02.259Z,0.70
2022-10-30T11:30:29.076Z,0.90
2022-10-30T11:32:57.229Z,1.20
2022-10-30T11:37:50.865Z,0.90
2022-10-30T11:40:19.964Z,0.80
2022-10-30T11:45:16.425Z,0.82
2022-10-30T11:47:43.372Z,0.80
2022-10-30T11:52:45.176Z,1.25
2022-10-30T12:05:25.406Z,1.13
2022-10-30T12:07:52.486Z,0.73
2022-10-30T12:15:23.065Z,0.80
2022-10-30T12:20:25.874Z,0.85
2022-10-30T12:22:53.104Z,0.88
2022-10-30T12:25:26.847Z,1.13
2022-10-30T12:28:16.722Z,1.10
2022-10-30T12:30:49.874Z,1.08
2022-10-30T12:33:19.408Z,0.80
2022-10-30T12:35:48.797Z,1.10
2022-10-30T12:41:08.740Z,1.00
2022-10-30T12:43:36.593Z,1.02
2022-10-30T12:56:34.230Z,1.20
2022-10-30T12:59:10.131Z,0.98
2022-10-30T13:01:51.781Z,0.70
2022-10-30T13:07:21.693Z,0.95
2022-10-30T13:09:57.871Z,0.73
2022-10-30T13:12:31.269Z,0.80
2022-10-30T13:15:00.996Z,0.82
2022-10-30T13:17:28.821Z,0.93
2022-10-30T13:19:55.443Z,0.75
2022-10-30T13:24:50.166Z,1.15
2022-10-30T13:27:16.813Z,1.20
2022-10-30T13:32:27.363Z,0.80
2022-10-30T13:37:31.102Z,1.05
2022-10-30T13:42:45.117Z,1.17
2022-10-30T13:45:11.858Z,0.88
2022-10-30T13:47:44.268Z,1.05
2022-10-30T13:50:13.994Z,0.98
2022-10-30T13:52:43.083Z,0.82
2022-10-30T13:55:18.461Z,0.85
2022-10-30T13:57:50.951Z,1.10
2022-10-30T14:00:21.980Z,0.90
2022-10-30T14:03:06.758Z,1.25
2022-10-30T14:08:13.940Z,0.68
2022-10-30T14:10:54.626Z,0.70
2022-10-30T14:13:27.170Z,0.80
2022-10-30T14:15:59.858Z,0.80
2022-10-30T14:18:28.010Z,0.85
2022-10-30T14:20:56.179Z,0.90
2022-10-30T14:26:11.602Z,0.63
2022-10-30T14:28:40.058Z,0.95
2022-10-30T14:31:11.224Z,1.20
2022-10-30T14:33:43.013Z,1.00
2022-10-30T14:36:32.694Z,0.60
2022-10-30T14:39:01.071Z,0.75
2022-10-30T14:41:27.649Z,1.00
2022-10-30T14:44:12.840Z,0.70
2022-10-30T14:47:05.630Z,0.85
2022-10-30T14:52:40.416Z,1.10
2022-10-30T14:55:16.011Z,0.88
2022-10-30T15:00:22.251Z,1.10
2022-10-30T15:03:07.273Z,0.82
2022-10-30T15:05:54.304Z,0.60
2022-10-30T15:13:48.767Z,0.88
2022-10-30T15:16:17.844Z,0.80
2022-10-30T15:18:53.172Z,0.75
2022-10-30T15:21:23.537Z,0.75
2022-10-30T15:23:50.239Z,1.60
2022-10-30T15:31:20.319Z,0.80
2022-10-30T15:33:47.196Z,1.30
2022-10-30T15:41:54.758Z,1.27
2022-10-30T15:44:23.616Z,1.50
2022-10-30T15:46:51.980Z,1.13
2022-10-30T15:49:28.846Z,1.08
2022-10-30T15:51:55.624Z,1.50
2022-10-30T15:54:24.928Z,1.30
2022-10-30T15:57:31.295Z,1.60
2022-10-30T15:59:41.554Z,1.33
2022-10-30T16:10:12.851Z,1.33
2022-10-30T16:12:39.732Z,1.30
2022-10-30T16:17:43.184Z,1.10
2022-10-30T16:20:10.286Z,1.00
2022-10-30T16:22:38.905Z,0.93
2022-10-30T16:25:09.715Z,0.90
2022-10-30T16:27:44.325Z,1.33
2022-10-30T16:32:41.051Z,1.45
2022-10-30T16:35:08.187Z,1.05
2022-10-30T16:37:36.349Z,1.23
2022-10-30T16:40:06.632Z,1.00
2022-10-30T16:42:35.341Z,0.93
2022-10-30T16:45:28.945Z,0.85
2022-10-30T16:48:09.261Z,1.05
2022-10-30T16:50:37.265Z,1.25
2022-10-30T16:53:07.543Z,1.50
2022-10-30T16:55:38.111Z,1.58
2022-10-30T16:58:04.771Z,1.10
2022-10-30T17:00:36.604Z,1.17
2022-10-30T17:05:34.324Z,1.70
2022-10-30T17:08:04.625Z,1.35
2022-10-30T17:10:32.450Z,1.73
2022-10-30T17:13:17.894Z,1.13
2022-10-30T17:15:44.682Z,1.98
2022-10-30T17:18:15.373Z,1.85
2022-10-30T17:20:42.164Z,1.60
2022-10-30T17:23:17.845Z,1.55
2022-10-30T17:25:44.690Z,1.23
2022-10-30T17:30:53.326Z,2.17
2022-10-30T17:33:26.138Z,1.95
2022-10-30T17:38:18.744Z,1.83
2022-10-30T17:40:45.782Z,1.55
2022-10-30T17:43:15.338Z,1.42
2022-10-30T17:45:42.712Z,1.70
2022-10-30T17:48:11.821Z,2.05
2022-10-30T17:53:04.021Z,1.63
2022-10-30T17:55:32.308Z,2.15
2022-10-30T17:57:58.938Z,2.63
2022-10-30T18:00:25.663Z,2.78
2022-10-30T18:02:52.665Z,2.30
2022-10-30T18:05:20.990Z,2.90
2022-10-30T18:07:47.646Z,2.47
2022-10-30T18:10:14.582Z,2.10
2022-10-30T18:15:25.428Z,2.55
2022-10-30T18:20:18.339Z,2.40
2022-10-30T18:22:44.974Z,2.28
2022-10-30T18:25:23.112Z,2.53
2022-10-30T18:27:49.751Z,2.60
2022-10-30T18:30:16.912Z,2.47
2022-10-30T18:35:15.183Z,2.47
2022-10-30T18:37:41.991Z,2.22
2022-10-30T18:40:09.218Z,2.40
2022-10-30T18:42:35.977Z,2.10
2022-10-30T18:50:16.949Z,2.67
2022-10-30T18:52:44.968Z,2.40
2022-10-30T18:55:22.306Z,2.55
2022-10-30T18:57:50.383Z,2.47
2022-10-30T19:00:18.821Z,2.83
2022-10-30T19:02:45.879Z,2.50
2022-10-30T19:05:21.244Z,2.47
2022-10-30T19:07:47.852Z,2.83
2022-10-30T19:10:14.696Z,2.38
2022-10-30T19:12:51.565Z,2.20
2022-10-30T19:15:30.763Z,2.92
2022-10-30T19:17:57.824Z,3.60
2022-10-30T19:20:37.595Z,3.58
2022-10-30T19:23:15.394Z,3.22
2022-10-30T19:25:42.079Z,3.20
2022-10-30T19:28:09.249Z,3.70
2022-10-30T19:33:01.350Z,3.30
2022-10-30T19:35:28.329Z,3.30
2022-10-30T19:37:55.929Z,3.50
2022-10-30T19:40:27.548Z,3.50
2022-10-30T19:42:54.616Z,2.90
2022-10-30T19:45:22.506Z,3.10
2022-10-30T19:47:53.098Z,3.00
2022-10-30T19:50:27.973Z,2.90
2022-10-30T19:52:59.837Z,2.72
2022-10-30T19:55:29.694Z,2.67
2022-10-30T19:57:58.706Z,2.63
2022-10-30T20:10:51.215Z,3.72
2022-10-30T20:13:18.488Z,5.90
2022-10-30T20:18:15.331Z,4.10
2022-10-30T20:28:06.887Z,2.88
2022-10-30T20:30:33.866Z,3.28
2022-10-30T20:33:00.719Z,2.58
2022-10-30T20:37:57.518Z,3.30
2022-10-30T20:40:24.247Z,3.90
2022-10-30T20:42:50.981Z,3.30
2022-10-30T20:45:19.304Z,3.17
2022-10-30T20:47:47.302Z,3.63
2022-10-30T20:50:14.383Z,3.90
2022-10-30T20:52:41.019Z,3.60
2022-10-30T20:55:08.091Z,3.70
2022-10-30T20:57:34.857Z,3.85
2022-10-30T21:00:01.825Z,3.55
2022-10-30T21:02:28.520Z,4.20
2022-10-30T21:04:55.315Z,4.03
2022-10-30T21:07:25.002Z,4.22
2022-10-30T21:09:51.716Z,3.80
2022-10-30T21:14:44.114Z,3.53
2022-10-30T21:17:10.827Z,3.47
2022-10-30T21:24:28.358Z,3.33
2022-10-30T21:26:55.477Z,3.22
2022-10-30T21:31:47.521Z,3.50
2022-10-30T21:34:14.437Z,3.85
2022-10-30T21:36:41.076Z,3.40
2022-10-30T21:39:07.780Z,3.60
2022-10-30T21:41:34.946Z,3.47
2022-10-30T21:44:01.817Z,3.58
2022-10-30T21:46:30.241Z,3.67
2022-10-30T21:49:01.487Z,4.00
2022-10-30T21:51:28.092Z,4.07
2022-10-30T21:53:55.401Z,4.05
2022-10-30T21:56:23.269Z,4.35
2022-10-30T21:58:50.356Z,4.53
2022-10-30T22:01:21.322Z,5.00
2022-10-30T22:03:48.272Z,5.57
2022-10-30T22:06:15.722Z,6.35
2022-10-30T22:08:45.235Z,6.07
2022-10-30T22:11:11.845Z,6.85
2022-10-30T22:13:38.811Z,6.85
2022-10-30T22:16:06.390Z,7.00
2022-10-30T22:18:33.246Z,7.28
2022-10-30T22:21:01.464Z,7.47
2022-10-30T22:23:28.534Z,6.97
2022-10-30T22:25:56.076Z,6.95
2022-10-30T22:28:22.805Z,7.60
2022-10-30T22:30:49.449Z,7.75
2022-10-30T22:33:16.599Z,7.35
2022-10-30T22:35:43.476Z,7.20
2022-10-30T22:38:10.099Z,7.70
2022-10-30T22:40:36.717Z,7.72
2022-10-30T22:43:03.459Z,8.40
2022-10-30T22:45:30.134Z,8.52
2022-10-30T22:50:22.118Z,8.60
2022-10-30T22:52:48.808Z,7.65
2022-10-30T22:55:15.515Z,7.57
2022-10-30T22:57:42.153Z,7.35
2022-10-30T23:00:09.178Z,7.00
2022-10-30T23:07:26.681Z,7.88
2022-10-30T23:14:44.152Z,7.15
2022-10-30T23:17:10.835Z,7.50
2022-10-30T23:19:37.456Z,7.85
2022-10-30T23:22:04.015Z,8.52
2022-10-30T23:24:30.680Z,7.57
2022-10-30T23:26:57.313Z,8.50
2022-10-30T23:29:23.908Z,7.55
2022-10-30T23:36:43.003Z,7.88
2022-10-30T23:41:42.722Z,7.32
2022-10-30T23:44:13.792Z,7.10
2022-10-30T23:51:31.721Z,7.68
2022-10-30T23:53:58.578Z,7.63
2022-10-30T23:56:25.479Z,7.43
2022-10-30T23:58:52.356Z,8.48
